sensor_id;sensor_type;location;lat;lon;timestamp;P1;durP1;ratioP1;P2;durP2;ratioP2
4517;SDS011;2271;49.464;11.070;2022-09-09T00:00:23;3.08;;;1.20;;
4517;SDS011;2271;49.464;11.070;2022-09-09T00:02:52;2.42;;;1.27;;
4517;SDS011;2271;49.464;11.070;2022-09-09T00:08:34;3.60;;;1.42;;
4517;SDS011;2271;49.464;11.070;2022-09-09T00:11:07;3.22;;;1.60;;
4517;SDS011;2271;49.464;11.070;2022-09-09T00:13:38;3.75;;;1.30;;
4517;SDS011;2271;49.464;11.070;2022-09-09T00:16:15;4.35;;;1.55;;
4517;SDS011;2271;49.464;11.070;2022-09-09T00:21:26;1.38;;;0.98;;
4517;SDS011;2271;49.464;11.070;2022-09-09T00:23:57;2.22;;;1.33;;
4517;SDS011;2271;49.464;11.070;2022-09-09T00:26:35;1.50;;;0.95;;
4517;SDS011;2271;49.464;11.070;2022-09-09T00:29:14;1.75;;;1.20;;
4517;SDS011;2271;49.464;11.070;2022-09-09T00:31:43;1.50;;;1.05;;
4517;SDS011;2271;49.464;11.070;2022-09-09T00:34:11;1.20;;;0.95;;
4517;SDS011;2271;49.464;11.070;2022-09-09T00:36:41;1.52;;;1.00;;
4517;SDS011;2271;49.464;11.070;2022-09-09T00:39:13;1.00;;;0.90;;
4517;SDS011;2271;49.464;11.070;2022-09-09T00:44:39;1.35;;;1.10;;
4517;SDS011;2271;49.464;11.070;2022-09-09T00:47:24;1.58;;;1.48;;
4517;SDS011;2271;49.464;11.070;2022-09-09T00:52:47;7.68;;;1.23;;
4517;SDS011;2271;49.464;11.070;2022-09-09T00:55:21;2.03;;;1.00;;
4517;SDS011;2271;49.464;11.070;2022-09-09T00:57:52;0.85;;;0.73;;
4517;SDS011;2271;49.464;11.070;2022-09-09T01:00:25;2.22;;;1.15;;
4517;SDS011;2271;49.464;11.070;2022-09-09T01:05:58;2.17;;;0.73;;
4517;SDS011;2271;49.464;11.070;2022-09-09T01:11:19;5.25;;;1.00;;
4517;SDS011;2271;49.464;11.070;2022-09-09T01:13:53;1.85;;;1.10;;
4517;SDS011;2271;49.464;11.070;2022-09-09T01:16:26;3.70;;;1.00;;
4517;SDS011;2271;49.464;11.070;2022-09-09T01:18:54;5.45;;;1.35;;
4517;SDS011;2271;49.464;11.070;2022-09-09T01:21:27;1.75;;;1.20;;
4517;SDS011;2271;49.464;11.070;2022-09-09T01:26:37;0.90;;;0.80;;
4517;SDS011;2271;49.464;11.070;2022-09-09T01:29:07;1.38;;;0.90;;
4517;SDS011;2271;49.464;11.070;2022-09-09T01:34:18;1.35;;;0.80;;
4517;SDS011;2271;49.464;11.070;2022-09-09T01:36:57;3.53;;;0.95;;
4517;SDS011;2271;49.464;11.070;2022-09-09T01:39:24;2.75;;;1.05;;
4517;SDS011;2271;49.464;11.070;2022-09-09T01:41:51;1.98;;;0.82;;
4517;SDS011;2271;49.464;11.070;2022-09-09T01:44:18;2.58;;;0.85;;
4517;SDS011;2271;49.464;11.070;2022-09-09T01:46:44;2.72;;;1.17;;
4517;SDS011;2271;49.464;11.070;2022-09-09T01:49:10;1.05;;;0.85;;
4517;SDS011;2271;49.464;11.070;2022-09-09T01:51:36;3.40;;;1.00;;
4517;SDS011;2271;49.464;11.070;2022-09-09T01:54:05;1.17;;;0.95;;
4517;SDS011;2271;49.464;11.070;2022-09-09T01:56:37;2.13;;;1.33;;
4517;SDS011;2271;49.464;11.070;2022-09-09T02:02:19;2.72;;;1.13;;
4517;SDS011;2271;49.464;11.070;2022-09-09T02:05:03;0.88;;;0.88;;
4517;SDS011;2271;49.464;11.070;2022-09-09T02:07:40;1.80;;;1.05;;
4517;SDS011;2271;49.464;11.070;2022-09-09T02:10:18;3.58;;;0.90;;
4517;SDS011;2271;49.464;11.070;2022-09-09T02:12:47;1.55;;;0.90;;
4517;SDS011;2271;49.464;11.070;2022-09-09T02:15:21;1.33;;;1.00;;
4517;SDS011;2271;49.464;11.070;2022-09-09T02:17:54;1.10;;;1.00;;
4517;SDS011;2271;49.464;11.070;2022-09-09T02:20:22;1.48;;;0.98;;
4517;SDS011;2271;49.464;11.070;2022-09-09T02:22:50;1.83;;;1.02;;
4517;SDS011;2271;49.464;11.070;2022-09-09T02:25:18;2.50;;;0.90;;
4517;SDS011;2271;49.464;11.070;2022-09-09T02:27:47;4.68;;;1.15;;
4517;SDS011;2271;49.464;11.070;2022-09-09T02:30:15;4.05;;;1.27;;
4517;SDS011;2271;49.464;11.070;2022-09-09T02:32:42;0.70;;;0.70;;
4517;SDS011;2271;49.464;11.070;2022-09-09T02:35:11;1.65;;;1.30;;
4517;SDS011;2271;49.464;11.070;2022-09-09T02:37:40;1.17;;;0.90;;
4517;SDS011;2271;49.464;11.070;2022-09-09T02:40:08;0.80;;;0.80;;
4517;SDS011;2271;49.464;11.070;2022-09-09T02:42:39;2.90;;;1.08;;
4517;SDS011;2271;49.464;11.070;2022-09-09T02:45:08;1.92;;;0.88;;
4517;SDS011;2271;49.464;11.070;2022-09-09T02:47:35;2.97;;;1.13;;
4517;SDS011;2271;49.464;11.070;2022-09-09T02:50:16;2.45;;;1.05;;
4517;SDS011;2271;49.464;11.070;2022-09-09T03:00:35;1.50;;;0.82;;
4517;SDS011;2271;49.464;11.070;2022-09-09T03:03:01;4.15;;;0.80;;
4517;SDS011;2271;49.464;11.070;2022-09-09T03:05:31;1.30;;;0.95;;
4517;SDS011;2271;49.464;11.070;2022-09-09T03:07:56;6.20;;;1.05;;
4517;SDS011;2271;49.464;11.070;2022-09-09T03:10:22;2.28;;;1.30;;
4517;SDS011;2271;49.464;11.070;2022-09-09T03:12:48;1.48;;;0.90;;
4517;SDS011;2271;49.464;11.070;2022-09-09T03:15:15;3.83;;;1.02;;
4517;SDS011;2271;49.464;11.070;2022-09-09T03:17:41;2.67;;;1.27;;
4517;SDS011;2271;49.464;11.070;2022-09-09T03:20:07;2.70;;;0.90;;
4517;SDS011;2271;49.464;11.070;2022-09-09T03:22:33;3.05;;;1.02;;
4517;SDS011;2271;49.464;11.070;2022-09-09T03:24:59;1.90;;;0.80;;
4517;SDS011;2271;49.464;11.070;2022-09-09T03:27:25;2.30;;;0.82;;
4517;SDS011;2271;49.464;11.070;2022-09-09T03:29:51;2.38;;;0.80;;
4517;SDS011;2271;49.464;11.070;2022-09-09T03:32:17;0.57;;;0.57;;
4517;SDS011;2271;49.464;11.070;2022-09-09T03:34:43;0.95;;;0.90;;
4517;SDS011;2271;49.464;11.070;2022-09-09T03:37:09;2.17;;;0.90;;
4517;SDS011;2271;49.464;11.070;2022-09-09T03:39:35;1.30;;;0.65;;
4517;SDS011;2271;49.464;11.070;2022-09-09T03:42:01;4.07;;;1.08;;
4517;SDS011;2271;49.464;11.070;2022-09-09T03:44:30;2.83;;;1.10;;
4517;SDS011;2271;49.464;11.070;2022-09-09T03:46:56;1.83;;;1.10;;
4517;SDS011;2271;49.464;11.070;2022-09-09T03:49:22;1.55;;;1.10;;
4517;SDS011;2271;49.464;11.070;2022-09-09T03:51:49;4.88;;;1.33;;
4517;SDS011;2271;49.464;11.070;2022-09-09T03:54:14;1.38;;;0.90;;
4517;SDS011;2271;49.464;11.070;2022-09-09T03:56:40;4.65;;;1.10;;
4517;SDS011;2271;49.464;11.070;2022-09-09T03:59:06;1.23;;;1.10;;
4517;SDS011;2271;49.464;11.070;2022-09-09T04:01:33;4.55;;;1.23;;
4517;SDS011;2271;49.464;11.070;2022-09-09T04:03:59;1.60;;;1.10;;
4517;SDS011;2271;49.464;11.070;2022-09-09T04:06:27;1.20;;;0.85;;
4517;SDS011;2271;49.464;11.070;2022-09-09T04:08:53;3.58;;;1.55;;
4517;SDS011;2271;49.464;11.070;2022-09-09T04:11:18;2.45;;;1.15;;
4517;SDS011;2271;49.464;11.070;2022-09-09T04:13:44;1.52;;;1.10;;
4517;SDS011;2271;49.464;11.070;2022-09-09T04:16:11;2.33;;;1.30;;
4517;SDS011;2271;49.464;11.070;2022-09-09T04:18:40;2.80;;;0.93;;
4517;SDS011;2271;49.464;11.070;2022-09-09T04:21:06;3.55;;;1.38;;
4517;SDS011;2271;49.464;11.070;2022-09-09T04:23:33;4.07;;;1.25;;
4517;SDS011;2271;49.464;11.070;2022-09-09T04:25:59;3.42;;;1.10;;
4517;SDS011;2271;49.464;11.070;2022-09-09T04:28:27;1.40;;;1.02;;
4517;SDS011;2271;49.464;11.070;2022-09-09T04:30:55;1.67;;;1.02;;
4517;SDS011;2271;49.464;11.070;2022-09-09T04:33:24;4.00;;;1.10;;
4517;SDS011;2271;49.464;11.070;2022-09-09T04:35:53;2.50;;;1.10;;
4517;SDS011;2271;49.464;11.070;2022-09-09T04:38:19;1.23;;;1.10;;
4517;SDS011;2271;49.464;11.070;2022-09-09T04:40:48;1.08;;;0.90;;
4517;SDS011;2271;49.464;11.070;2022-09-09T04:43:16;3.55;;;1.27;;
4517;SDS011;2271;49.464;11.070;2022-09-09T04:45:43;3.75;;;1.10;;
4517;SDS011;2271;49.464;11.070;2022-09-09T04:48:11;2.30;;;0.80;;
4517;SDS011;2271;49.464;11.070;2022-09-09T04:50:37;1.02;;;0.93;;
4517;SDS011;2271;49.464;11.070;2022-09-09T04:53:03;2.58;;;1.08;;
4517;SDS011;2271;49.464;11.070;2022-09-09T04:55:30;2.67;;;1.20;;
4517;SDS011;2271;49.464;11.070;2022-09-09T04:57:56;1.40;;;1.00;;
4517;SDS011;2271;49.464;11.070;2022-09-09T05:00:22;2.95;;;1.15;;
4517;SDS011;2271;49.464;11.070;2022-09-09T05:02:49;2.33;;;1.30;;
4517;SDS011;2271;49.464;11.070;2022-09-09T05:05:15;2.38;;;1.00;;
4517;SDS011;2271;49.464;11.070;2022-09-09T05:07:41;2.80;;;1.10;;
4517;SDS011;2271;49.464;11.070;2022-09-09T05:10:08;2.28;;;1.13;;
4517;SDS011;2271;49.464;11.070;2022-09-09T05:12:35;3.10;;;1.42;;
4517;SDS011;2271;49.464;11.070;2022-09-09T05:15:01;2.72;;;1.42;;
4517;SDS011;2271;49.464;11.070;2022-09-09T05:17:26;2.05;;;1.27;;
4517;SDS011;2271;49.464;11.070;2022-09-09T05:19:52;1.58;;;1.25;;
4517;SDS011;2271;49.464;11.070;2022-09-09T05:22:19;1.30;;;1.10;;
4517;SDS011;2271;49.464;11.070;2022-09-09T05:24:45;3.05;;;1.30;;
4517;SDS011;2271;49.464;11.070;2022-09-09T05:27:11;4.40;;;1.40;;
4517;SDS011;2271;49.464;11.070;2022-09-09T05:29:37;1.98;;;1.30;;
4517;SDS011;2271;49.464;11.070;2022-09-09T05:32:03;3.50;;;1.50;;
4517;SDS011;2271;49.464;11.070;2022-09-09T05:34:29;1.85;;;1.05;;
4517;SDS011;2271;49.464;11.070;2022-09-09T05:36:55;1.88;;;1.52;;
4517;SDS011;2271;49.464;11.070;2022-09-09T05:39:20;3.50;;;1.70;;
4517;SDS011;2271;49.464;11.070;2022-09-09T05:41:46;7.22;;;2.20;;
4517;SDS011;2271;49.464;11.070;2022-09-09T05:44:12;3.20;;;1.80;;
4517;SDS011;2271;49.464;11.070;2022-09-09T05:46:38;2.17;;;1.40;;
4517;SDS011;2271;49.464;11.070;2022-09-09T05:49:04;3.67;;;1.73;;
4517;SDS011;2271;49.464;11.070;2022-09-09T05:51:31;7.85;;;2.00;;
4517;SDS011;2271;49.464;11.070;2022-09-09T05:53:57;4.40;;;1.70;;
4517;SDS011;2271;49.464;11.070;2022-09-09T05:56:26;10.82;;;1.90;;
4517;SDS011;2271;49.464;11.070;2022-09-09T05:58:53;4.70;;;1.95;;
4517;SDS011;2271;49.464;11.070;2022-09-09T06:01:21;4.80;;;2.72;;
4517;SDS011;2271;49.464;11.070;2022-09-09T06:03:48;3.10;;;1.63;;
4517;SDS011;2271;49.464;11.070;2022-09-09T06:06:16;3.42;;;1.35;;
4517;SDS011;2271;49.464;11.070;2022-09-09T06:08:45;3.40;;;1.42;;
4517;SDS011;2271;49.464;11.070;2022-09-09T06:11:21;3.80;;;1.50;;
4517;SDS011;2271;49.464;11.070;2022-09-09T06:13:49;3.50;;;1.25;;
4517;SDS011;2271;49.464;11.070;2022-09-09T06:16:18;5.47;;;1.67;;
4517;SDS011;2271;49.464;11.070;2022-09-09T06:18:45;2.30;;;1.73;;
4517;SDS011;2271;49.464;11.070;2022-09-09T06:21:15;3.22;;;1.42;;
4517;SDS011;2271;49.464;11.070;2022-09-09T06:23:45;4.45;;;1.40;;
4517;SDS011;2271;49.464;11.070;2022-09-09T06:28:38;4.82;;;1.58;;
4517;SDS011;2271;49.464;11.070;2022-09-09T06:31:05;10.02;;;1.60;;
4517;SDS011;2271;49.464;11.070;2022-09-09T06:33:34;3.03;;;1.50;;
4517;SDS011;2271;49.464;11.070;2022-09-09T06:36:06;4.55;;;1.80;;
4517;SDS011;2271;49.464;11.070;2022-09-09T06:38:36;1.88;;;1.27;;
4517;SDS011;2271;49.464;11.070;2022-09-09T06:41:02;6.75;;;1.70;;
4517;SDS011;2271;49.464;11.070;2022-09-09T06:43:28;12.60;;;1.98;;
4517;SDS011;2271;49.464;11.070;2022-09-09T06:48:43;5.28;;;1.70;;
4517;SDS011;2271;49.464;11.070;2022-09-09T06:53:40;2.47;;;1.70;;
4517;SDS011;2271;49.464;11.070;2022-09-09T06:58:45;6.72;;;1.52;;
4517;SDS011;2271;49.464;11.070;2022-09-09T07:01:20;2.10;;;1.45;;
4517;SDS011;2271;49.464;11.070;2022-09-09T07:03:49;3.03;;;1.20;;
4517;SDS011;2271;49.464;11.070;2022-09-09T07:06:17;2.78;;;1.40;;
4517;SDS011;2271;49.464;11.070;2022-09-09T07:08:51;4.55;;;1.42;;
4517;SDS011;2271;49.464;11.070;2022-09-09T07:11:23;3.38;;;1.25;;
4517;SDS011;2271;49.464;11.070;2022-09-09T07:13:52;3.53;;;1.40;;
4517;SDS011;2271;49.464;11.070;2022-09-09T07:16:18;1.63;;;1.10;;
4517;SDS011;2271;49.464;11.070;2022-09-09T07:18:45;1.58;;;1.08;;
4517;SDS011;2271;49.464;11.070;2022-09-09T07:21:12;1.80;;;1.08;;
4517;SDS011;2271;49.464;11.070;2022-09-09T07:23:38;4.63;;;1.85;;
4517;SDS011;2271;49.464;11.070;2022-09-09T07:26:08;2.80;;;1.48;;
4517;SDS011;2271;49.464;11.070;2022-09-09T07:28:38;6.82;;;1.55;;
4517;SDS011;2271;49.464;11.070;2022-09-09T07:31:05;4.03;;;1.50;;
4517;SDS011;2271;49.464;11.070;2022-09-09T07:33:32;7.30;;;1.98;;
4517;SDS011;2271;49.464;11.070;2022-09-09T07:36:09;3.03;;;1.30;;
4517;SDS011;2271;49.464;11.070;2022-09-09T07:38:41;2.20;;;1.40;;
4517;SDS011;2271;49.464;11.070;2022-09-09T07:41:12;9.25;;;1.25;;
4517;SDS011;2271;49.464;11.070;2022-09-09T07:43:41;4.68;;;1.15;;
4517;SDS011;2271;49.464;11.070;2022-09-09T07:46:09;1.80;;;1.20;;
4517;SDS011;2271;49.464;11.070;2022-09-09T07:48:37;2.25;;;1.25;;
4517;SDS011;2271;49.464;11.070;2022-09-09T07:51:04;3.63;;;1.67;;
4517;SDS011;2271;49.464;11.070;2022-09-09T07:53:36;6.63;;;1.67;;
4517;SDS011;2271;49.464;11.070;2022-09-09T07:56:06;2.72;;;1.10;;
4517;SDS011;2271;49.464;11.070;2022-09-09T07:58:37;2.72;;;1.23;;
4517;SDS011;2271;49.464;11.070;2022-09-09T08:01:11;6.55;;;1.63;;
4517;SDS011;2271;49.464;11.070;2022-09-09T08:03:39;4.70;;;1.58;;
4517;SDS011;2271;49.464;11.070;2022-09-09T08:06:05;38.63;;;4.25;;
4517;SDS011;2271;49.464;11.070;2022-09-09T08:08:33;8.40;;;2.17;;
4517;SDS011;2271;49.464;11.070;2022-09-09T08:11:03;7.10;;;1.60;;
4517;SDS011;2271;49.464;11.070;2022-09-09T08:13:37;8.35;;;1.50;;
4517;SDS011;2271;49.464;11.070;2022-09-09T08:16:13;4.53;;;1.25;;
4517;SDS011;2271;49.464;11.070;2022-09-09T08:18:41;3.15;;;1.10;;
4517;SDS011;2271;49.464;11.070;2022-09-09T08:21:12;3.83;;;1.10;;
4517;SDS011;2271;49.464;11.070;2022-09-09T08:23:43;2.78;;;1.95;;
4517;SDS011;2271;49.464;11.070;2022-09-09T08:26:14;2.08;;;0.90;;
4517;SDS011;2271;49.464;11.070;2022-09-09T08:28:42;3.63;;;0.75;;
4517;SDS011;2271;49.464;11.070;2022-09-09T08:31:12;1.95;;;1.00;;
4517;SDS011;2271;49.464;11.070;2022-09-09T08:33:41;3.10;;;0.80;;
4517;SDS011;2271;49.464;11.070;2022-09-09T08:36:09;5.00;;;0.95;;
4517;SDS011;2271;49.464;11.070;2022-09-09T08:38:38;4.20;;;0.93;;
4517;SDS011;2271;49.464;11.070;2022-09-09T08:41:07;1.42;;;0.80;;
4517;SDS011;2271;49.464;11.070;2022-09-09T08:46:46;2.88;;;1.00;;
4517;SDS011;2271;49.464;11.070;2022-09-09T08:52:15;1.75;;;0.82;;
4517;SDS011;2271;49.464;11.070;2022-09-09T08:54:44;4.35;;;1.00;;
4517;SDS011;2271;49.464;11.070;2022-09-09T08:57:14;1.40;;;0.90;;
4517;SDS011;2271;49.464;11.070;2022-09-09T08:59:43;1.15;;;0.95;;
4517;SDS011;2271;49.464;11.070;2022-09-09T09:10:18;1.10;;;0.60;;
4517;SDS011;2271;49.464;11.070;2022-09-09T09:13:13;3.13;;;0.65;;
4517;SDS011;2271;49.464;11.070;2022-09-09T09:15:46;1.40;;;0.60;;
4517;SDS011;2271;49.464;11.070;2022-09-09T09:18:17;0.65;;;0.50;;
4517;SDS011;2271;49.464;11.070;2022-09-09T09:26:27;3.47;;;0.85;;
4517;SDS011;2271;49.464;11.070;2022-09-09T09:28:59;3.65;;;0.75;;
4517;SDS011;2271;49.464;11.070;2022-09-09T09:31:33;1.42;;;0.88;;
4517;SDS011;2271;49.464;11.070;2022-09-09T09:33:58;2.15;;;0.93;;
4517;SDS011;2271;49.464;11.070;2022-09-09T09:39:03;1.40;;;0.50;;
4517;SDS011;2271;49.464;11.070;2022-09-09T09:41:39;2.20;;;0.73;;
4517;SDS011;2271;49.464;11.070;2022-09-09T09:44:26;2.22;;;0.68;;
4517;SDS011;2271;49.464;11.070;2022-09-09T09:47:04;1.13;;;0.60;;
4517;SDS011;2271;49.464;11.070;2022-09-09T09:49:36;1.25;;;1.02;;
4517;SDS011;2271;49.464;11.070;2022-09-09T09:52:05;0.90;;;0.55;;
4517;SDS011;2271;49.464;11.070;2022-09-09T09:54:33;1.00;;;0.60;;
4517;SDS011;2271;49.464;11.070;2022-09-09T09:57:10;2.55;;;0.93;;
4517;SDS011;2271;49.464;11.070;2022-09-09T09:59:37;2.90;;;0.70;;
4517;SDS011;2271;49.464;11.070;2022-09-09T10:02:19;1.05;;;0.60;;
4517;SDS011;2271;49.464;11.070;2022-09-09T10:05:03;1.08;;;0.50;;
4517;SDS011;2271;49.464;11.070;2022-09-09T10:07:38;2.38;;;0.50;;
4517;SDS011;2271;49.464;11.070;2022-09-09T10:10:04;1.10;;;0.73;;
4517;SDS011;2271;49.464;11.070;2022-09-09T10:20:55;3.47;;;0.73;;
4517;SDS011;2271;49.464;11.070;2022-09-09T10:26:49;2.17;;;1.35;;
4517;SDS011;2271;49.464;11.070;2022-09-09T10:42:50;0.52;;;0.52;;
4517;SDS011;2271;49.464;11.070;2022-09-09T10:45:23;3.40;;;0.60;;
4517;SDS011;2271;49.464;11.070;2022-09-09T10:51:11;1.73;;;1.00;;
4517;SDS011;2271;49.464;11.070;2022-09-09T10:54:11;2.92;;;0.95;;
4517;SDS011;2271;49.464;11.070;2022-09-09T10:56:55;1.73;;;0.60;;
4517;SDS011;2271;49.464;11.070;2022-09-09T10:59:29;2.13;;;0.90;;
4517;SDS011;2271;49.464;11.070;2022-09-09T11:02:25;1.88;;;0.70;;
4517;SDS011;2271;49.464;11.070;2022-09-09T11:07:49;2.05;;;0.70;;
4517;SDS011;2271;49.464;11.070;2022-09-09T11:10:41;1.88;;;0.50;;
4517;SDS011;2271;49.464;11.070;2022-09-09T11:16:19;1.60;;;1.02;;
4517;SDS011;2271;49.464;11.070;2022-09-09T11:18:57;3.20;;;1.08;;
4517;SDS011;2271;49.464;11.070;2022-09-09T11:21:45;3.45;;;0.75;;
4517;SDS011;2271;49.464;11.070;2022-09-09T11:24:16;1.13;;;0.55;;
4517;SDS011;2271;49.464;11.070;2022-09-09T11:27:26;0.90;;;0.57;;
4517;SDS011;2271;49.464;11.070;2022-09-09T11:40:47;4.93;;;1.30;;
4517;SDS011;2271;49.464;11.070;2022-09-09T11:43:38;1.10;;;0.70;;
4517;SDS011;2271;49.464;11.070;2022-09-09T11:46:07;3.55;;;1.23;;
4517;SDS011;2271;49.464;11.070;2022-09-09T11:53:27;2.20;;;1.05;;
4517;SDS011;2271;49.464;11.070;2022-09-09T11:56:00;1.48;;;0.77;;
4517;SDS011;2271;49.464;11.070;2022-09-09T11:58:42;2.53;;;1.00;;
4517;SDS011;2271;49.464;11.070;2022-09-09T12:04:06;3.28;;;0.85;;
4517;SDS011;2271;49.464;11.070;2022-09-09T12:09:44;1.33;;;0.63;;
4517;SDS011;2271;49.464;11.070;2022-09-09T12:25:16;4.00;;;0.52;;
4517;SDS011;2271;49.464;11.070;2022-09-09T12:33:36;2.03;;;0.70;;
4517;SDS011;2271;49.464;11.070;2022-09-09T12:36:10;1.75;;;0.55;;
4517;SDS011;2271;49.464;11.070;2022-09-09T12:38:40;0.73;;;0.50;;
4517;SDS011;2271;49.464;11.070;2022-09-09T12:41:17;2.13;;;0.73;;
4517;SDS011;2271;49.464;11.070;2022-09-09T12:43:48;2.58;;;0.43;;
4517;SDS011;2271;49.464;11.070;2022-09-09T12:46:22;3.58;;;0.60;;
4517;SDS011;2271;49.464;11.070;2022-09-09T12:48:57;1.05;;;0.60;;
4517;SDS011;2271;49.464;11.070;2022-09-09T12:51:29;2.25;;;0.55;;
4517;SDS011;2271;49.464;11.070;2022-09-09T12:53:57;4.68;;;1.02;;
4517;SDS011;2271;49.464;11.070;2022-09-09T12:56:25;4.25;;;0.82;;
4517;SDS011;2271;49.464;11.070;2022-09-09T12:58:56;1.63;;;0.50;;
4517;SDS011;2271;49.464;11.070;2022-09-09T13:01:27;3.03;;;0.40;;
4517;SDS011;2271;49.464;11.070;2022-09-09T13:03:54;5.10;;;0.93;;
4517;SDS011;2271;49.464;11.070;2022-09-09T13:06:22;4.40;;;1.25;;
4517;SDS011;2271;49.464;11.070;2022-09-09T13:08:50;0.80;;;0.35;;
4517;SDS011;2271;49.464;11.070;2022-09-09T13:11:17;1.55;;;0.57;;
4517;SDS011;2271;49.464;11.070;2022-09-09T13:13:58;2.55;;;0.60;;
4517;SDS011;2271;49.464;11.070;2022-09-09T13:16:31;0.60;;;0.45;;
4517;SDS011;2271;49.464;11.070;2022-09-09T13:18:59;2.97;;;0.70;;
4517;SDS011;2271;49.464;11.070;2022-09-09T13:21:34;3.13;;;0.98;;
4517;SDS011;2271;49.464;11.070;2022-09-09T13:24:05;1.85;;;0.60;;
4517;SDS011;2271;49.464;11.070;2022-09-09T13:26:53;3.67;;;0.52;;
4517;SDS011;2271;49.464;11.070;2022-09-09T13:29:21;2.03;;;0.60;;
4517;SDS011;2271;49.464;11.070;2022-09-09T13:31:47;0.93;;;0.50;;
4517;SDS011;2271;49.464;11.070;2022-09-09T13:34:27;3.05;;;0.60;;
4517;SDS011;2271;49.464;11.070;2022-09-09T13:37:04;2.35;;;0.68;;
4517;SDS011;2271;49.464;11.070;2022-09-09T13:39:32;2.55;;;0.70;;
4517;SDS011;2271;49.464;11.070;2022-09-09T13:42:01;1.27;;;0.57;;
4517;SDS011;2271;49.464;11.070;2022-09-09T13:44:31;0.98;;;0.40;;
4517;SDS011;2271;49.464;11.070;2022-09-09T13:47:20;0.77;;;0.50;;
4517;SDS011;2271;49.464;11.070;2022-09-09T13:49:52;2.15;;;0.70;;
4517;SDS011;2271;49.464;11.070;2022-09-09T13:52:18;2.92;;;0.75;;
4517;SDS011;2271;49.464;11.070;2022-09-09T13:54:48;3.95;;;0.75;;
4517;SDS011;2271;49.464;11.070;2022-09-09T13:57:18;1.70;;;0.80;;
4517;SDS011;2271;49.464;11.070;2022-09-09T13:59:46;5.35;;;0.70;;
4517;SDS011;2271;49.464;11.070;2022-09-09T14:02:13;1.73;;;0.65;;
4517;SDS011;2271;49.464;11.070;2022-09-09T14:04:39;2.10;;;0.73;;
4517;SDS011;2271;49.464;11.070;2022-09-09T14:07:08;2.10;;;0.60;;
4517;SDS011;2271;49.464;11.070;2022-09-09T14:09:39;2.65;;;0.60;;
4517;SDS011;2271;49.464;11.070;2022-09-09T14:12:05;0.82;;;0.50;;
4517;SDS011;2271;49.464;11.070;2022-09-09T14:14:34;3.35;;;0.60;;
4517;SDS011;2271;49.464;11.070;2022-09-09T14:16:59;2.95;;;0.60;;
4517;SDS011;2271;49.464;11.070;2022-09-09T14:19:25;0.90;;;0.30;;
4517;SDS011;2271;49.464;11.070;2022-09-09T14:21:51;2.67;;;0.57;;
4517;SDS011;2271;49.464;11.070;2022-09-09T14:24:17;1.30;;;0.60;;
4517;SDS011;2271;49.464;11.070;2022-09-09T14:26:42;3.22;;;0.73;;
4517;SDS011;2271;49.464;11.070;2022-09-09T14:29:08;1.75;;;0.50;;
4517;SDS011;2271;49.464;11.070;2022-09-09T14:31:34;2.85;;;0.90;;
4517;SDS011;2271;49.464;11.070;2022-09-09T14:34:00;3.15;;;0.52;;
4517;SDS011;2271;49.464;11.070;2022-09-09T14:36:25;1.25;;;0.57;;
4517;SDS011;2271;49.464;11.070;2022-09-09T14:38:51;1.88;;;0.47;;
4517;SDS011;2271;49.464;11.070;2022-09-09T14:41:18;1.15;;;0.50;;
4517;SDS011;2271;49.464;11.070;2022-09-09T14:43:45;3.95;;;0.60;;
4517;SDS011;2271;49.464;11.070;2022-09-09T14:46:14;1.77;;;0.50;;
4517;SDS011;2271;49.464;11.070;2022-09-09T14:48:41;3.60;;;0.75;;
4517;SDS011;2271;49.464;11.070;2022-09-09T14:51:16;4.55;;;1.17;;
4517;SDS011;2271;49.464;11.070;2022-09-09T14:53:47;2.10;;;0.60;;
4517;SDS011;2271;49.464;11.070;2022-09-09T14:56:14;3.17;;;0.80;;
4517;SDS011;2271;49.464;11.070;2022-09-09T14:58:42;1.27;;;0.50;;
4517;SDS011;2271;49.464;11.070;2022-09-09T15:01:09;1.95;;;0.70;;
4517;SDS011;2271;49.464;11.070;2022-09-09T15:03:41;6.20;;;0.82;;
4517;SDS011;2271;49.464;11.070;2022-09-09T15:06:09;1.33;;;0.52;;
4517;SDS011;2271;49.464;11.070;2022-09-09T15:08:40;4.20;;;1.15;;
4517;SDS011;2271;49.464;11.070;2022-09-09T15:11:08;1.55;;;0.55;;
4517;SDS011;2271;49.464;11.070;2022-09-09T15:13:35;2.75;;;0.68;;
4517;SDS011;2271;49.464;11.070;2022-09-09T15:16:05;1.70;;;0.60;;
4517;SDS011;2271;49.464;11.070;2022-09-09T15:18:32;3.03;;;0.80;;
4517;SDS011;2271;49.464;11.070;2022-09-09T15:20:59;1.73;;;0.70;;
4517;SDS011;2271;49.464;11.070;2022-09-09T15:23:28;2.58;;;0.70;;
4517;SDS011;2271;49.464;11.070;2022-09-09T15:25:56;2.03;;;0.70;;
4517;SDS011;2271;49.464;11.070;2022-09-09T15:28:22;2.83;;;0.80;;
4517;SDS011;2271;49.464;11.070;2022-09-09T15:30:51;4.43;;;0.80;;
4517;SDS011;2271;49.464;11.070;2022-09-09T15:33:19;1.85;;;0.70;;
4517;SDS011;2271;49.464;11.070;2022-09-09T15:35:45;4.18;;;0.70;;
4517;SDS011;2271;49.464;11.070;2022-09-09T15:38:11;2.75;;;0.80;;
4517;SDS011;2271;49.464;11.070;2022-09-09T15:40:41;1.88;;;0.80;;
4517;SDS011;2271;49.464;11.070;2022-09-09T15:43:07;4.50;;;0.70;;
4517;SDS011;2271;49.464;11.070;2022-09-09T15:45:34;5.10;;;0.65;;
4517;SDS011;2271;49.464;11.070;2022-09-09T15:48:02;0.85;;;0.57;;
4517;SDS011;2271;49.464;11.070;2022-09-09T15:50:28;1.90;;;0.60;;
4517;SDS011;2271;49.464;11.070;2022-09-09T15:52:56;1.90;;;0.80;;
4517;SDS011;2271;49.464;11.070;2022-09-09T15:55:22;2.97;;;0.80;;
4517;SDS011;2271;49.464;11.070;2022-09-09T15:57:50;1.30;;;0.52;;
4517;SDS011;2271;49.464;11.070;2022-09-09T16:00:20;2.25;;;0.73;;
4517;SDS011;2271;49.464;11.070;2022-09-09T16:02:46;1.88;;;0.75;;
4517;SDS011;2271;49.464;11.070;2022-09-09T16:05:12;0.80;;;0.50;;
4517;SDS011;2271;49.464;11.070;2022-09-09T16:07:38;1.73;;;0.65;;
4517;SDS011;2271;49.464;11.070;2022-09-09T16:10:04;1.27;;;0.50;;
4517;SDS011;2271;49.464;11.070;2022-09-09T16:12:30;0.70;;;0.47;;
4517;SDS011;2271;49.464;11.070;2022-09-09T16:14:56;1.08;;;0.40;;
4517;SDS011;2271;49.464;11.070;2022-09-09T16:17:22;1.05;;;0.40;;
4517;SDS011;2271;49.464;11.070;2022-09-09T16:19:47;1.05;;;0.60;;
4517;SDS011;2271;49.464;11.070;2022-09-09T16:22:13;0.95;;;0.52;;
4517;SDS011;2271;49.464;11.070;2022-09-09T16:24:40;2.10;;;0.43;;
4517;SDS011;2271;49.464;11.070;2022-09-09T16:27:06;2.10;;;0.50;;
4517;SDS011;2271;49.464;11.070;2022-09-09T16:29:31;3.10;;;0.85;;
4517;SDS011;2271;49.464;11.070;2022-09-09T16:31:57;1.05;;;0.52;;
4517;SDS011;2271;49.464;11.070;2022-09-09T16:34:24;0.82;;;0.50;;
4517;SDS011;2271;49.464;11.070;2022-09-09T16:36:50;1.00;;;0.40;;
4517;SDS011;2271;49.464;11.070;2022-09-09T16:39:19;0.40;;;0.40;;
4517;SDS011;2271;49.464;11.070;2022-09-09T16:41:46;0.65;;;0.50;;
4517;SDS011;2271;49.464;11.070;2022-09-09T16:44:13;2.55;;;0.80;;
4517;SDS011;2271;49.464;11.070;2022-09-09T16:46:42;3.78;;;0.57;;
4517;SDS011;2271;49.464;11.070;2022-09-09T16:49:10;2.45;;;0.90;;
4517;SDS011;2271;49.464;11.070;2022-09-09T16:51:38;2.35;;;0.82;;
4517;SDS011;2271;49.464;11.070;2022-09-09T16:54:06;0.85;;;0.50;;
4517;SDS011;2271;49.464;11.070;2022-09-09T16:56:33;0.73;;;0.50;;
4517;SDS011;2271;49.464;11.070;2022-09-09T16:59:02;0.40;;;0.40;;
4517;SDS011;2271;49.464;11.070;2022-09-09T17:01:33;1.23;;;0.45;;
4517;SDS011;2271;49.464;11.070;2022-09-09T17:04:06;1.58;;;0.70;;
4517;SDS011;2271;49.464;11.070;2022-09-09T17:06:33;0.32;;;0.32;;
4517;SDS011;2271;49.464;11.070;2022-09-09T17:09:02;0.45;;;0.40;;
4517;SDS011;2271;49.464;11.070;2022-09-09T17:11:29;1.10;;;0.47;;
4517;SDS011;2271;49.464;11.070;2022-09-09T17:13:55;3.20;;;0.77;;
4517;SDS011;2271;49.464;11.070;2022-09-09T17:16:24;1.38;;;0.70;;
4517;SDS011;2271;49.464;11.070;2022-09-09T17:18:54;0.60;;;0.50;;
4517;SDS011;2271;49.464;11.070;2022-09-09T17:21:22;2.53;;;0.90;;
4517;SDS011;2271;49.464;11.070;2022-09-09T17:23:50;3.08;;;0.68;;
4517;SDS011;2271;49.464;11.070;2022-09-09T17:26:23;2.50;;;1.08;;
4517;SDS011;2271;49.464;11.070;2022-09-09T17:28:54;1.75;;;0.63;;
4517;SDS011;2271;49.464;11.070;2022-09-09T17:31:23;0.73;;;0.40;;
4517;SDS011;2271;49.464;11.070;2022-09-09T17:33:50;1.55;;;0.68;;
4517;SDS011;2271;49.464;11.070;2022-09-09T17:36:25;1.33;;;0.68;;